Terminal Aerodrome Forecast
Issued by NWS Sterling, VA

Current Version | Previous Version | Text Only | Print | Product List | Glossary On
Versions: 1 2 3 4 5 6 7 8 9 10 11 12 13 14 15 16 17 18 19 20 21 22 23 24 25 26 27 28 29
000
FTUS41 KLWX 270852 AAA
TAFBWI
TAF AMD
KBWI 270852Z 2709/2812 34008KT 5SM -RA BR SCT015 OVC025
     FM271500 35006KT P6SM OVC045
     FM280200 33010KT P6SM BKN100=

USA.gov is the U.S. government's official web portal to all federal, state and local government web resources and services.